Time;durP1;ratioP1;P1;durP2;ratioP2;P2;SDS_P1;SDS_P2;PMS_P1;PMS_P2;Temp;Humidity;BMP_temperature;BMP_pressure;BME280_temperature;BME280_humidity;BME280_pressure;Samples;Min_cycle;Max_cycle;Signal;HPM_P1;HPM_P2
2022/03/16 00:01:29;;;;;;;32.58;20.50;;;;;;;2.83;94.43;102356.28;5071502;28;20039;-73
2022/03/16 00:03:54;;;;;;;35.15;20.90;;;;;;;2.81;94.23;102366.09;5071300;28;20029;-73
2022/03/16 00:06:20;;;;;;;53.47;31.10;;;;;;;2.79;94.50;102368.00;5071199;28;20024;-73
2022/03/16 00:08:45;;;;;;;35.15;21.30;;;;;;;2.67;95.27;102354.84;5070525;28;20468;-73
2022/03/16 00:11:11;;;;;;;31.13;16.98;;;;;;;2.73;96.31;102365.78;5069610;28;20117;-73
2022/03/16 00:13:36;;;;;;;34.42;18.77;;;;;;;2.64;95.52;102353.25;5069680;28;20055;-73
2022/03/16 00:16:01;;;;;;;39.30;21.38;;;;;;;2.72;95.55;102368.53;5070987;28;20032;-73
2022/03/16 00:18:27;;;;;;;38.08;21.40;;;;;;;2.68;95.95;102370.53;5071034;28;20035;-73
2022/03/16 00:20:52;;;;;;;32.25;18.80;;;;;;;2.62;95.65;102363.09;5070855;28;20137;-73
2022/03/16 00:23:18;;;;;;;26.35;14.95;;;;;;;2.63;96.15;102377.94;5070856;28;20075;-73
2022/03/16 00:25:43;;;;;;;27.63;14.23;;;;;;;2.58;96.30;102362.44;5072393;28;20112;-73
2022/03/16 00:28:09;;;;;;;29.95;16.02;;;;;;;2.53;96.19;102372.44;5072752;28;20033;-73
2022/03/16 00:30:36;;;;;;;30.52;16.75;;;;;;;2.52;96.53;102376.03;5071323;28;20094;-73
2022/03/16 00:33:02;;;;;;;33.05;18.15;;;;;;;2.51;97.24;102363.81;5070505;28;21025;-73
2022/03/16 00:35:27;;;;;;;30.27;17.13;;;;;;;2.54;97.12;102370.66;5069326;28;20032;-73
2022/03/16 00:37:52;;;;;;;26.50;14.80;;;;;;;2.52;96.96;102372.56;5069356;28;20051;-73
2022/03/16 00:40:18;;;;;;;30.35;17.75;;;;;;;2.45;96.43;102361.59;5070571;28;20502;-73
2022/03/16 00:42:43;;;;;;;35.20;21.48;;;;;;;2.38;95.91;102365.59;5070463;28;20547;-73
2022/03/16 00:45:09;;;;;;;28.23;16.17;;;;;;;2.37;96.25;102372.66;5069339;28;20037;-73
2022/03/16 00:47:34;;;;;;;37.25;24.35;;;;;;;2.37;96.46;102370.03;5069304;28;20032;-73
2022/03/16 00:50:00;;;;;;;34.30;20.98;;;;;;;2.32;96.92;102366.88;5070023;28;20119;-73
2022/03/16 00:52:25;;;;;;;43.22;27.40;;;;;;;2.37;96.88;102372.66;5068832;28;20048;-73
2022/03/16 00:54:50;;;;;;;38.20;24.95;;;;;;;2.22;96.20;102360.53;5068849;28;20043;-73
2022/03/16 00:57:16;;;;;;;36.78;22.98;;;;;;;2.25;95.91;102370.03;5069203;28;20430;-73
2022/03/16 00:59:41;;;;;;;32.28;19.52;;;;;;;2.29;96.28;102376.78;5070283;28;20052;-73
2022/03/16 01:02:07;;;;;;;29.45;17.35;;;;;;;2.25;96.50;102370.03;5070704;28;20020;-73
2022/03/16 01:04:32;;;;;;;28.25;17.30;;;;;;;2.23;96.44;102366.66;5069965;28;20032;-73
2022/03/16 01:06:58;;;;;;;30.85;16.17;;;;;;;2.21;96.31;102374.66;5070129;28;20376;-73
2022/03/16 01:09:23;;;;;;;26.92;14.27;;;;;;;2.16;96.39;102366.25;5070168;28;20609;-73
2022/03/16 01:11:49;;;;;;;27.88;16.27;;;;;;;2.15;96.72;102368.03;5068794;28;20036;-73
2022/03/16 01:14:15;;;;;;;26.02;15.30;;;;;;;2.12;96.82;102363.00;5070019;28;20029;-73
2022/03/16 01:16:40;;;;;;;30.27;19.08;;;;;;;2.06;96.32;102349.38;5070031;28;20028;-73
2022/03/16 01:19:06;;;;;;;28.25;15.50;;;;;;;2.12;96.33;102362.13;5069380;28;20511;-73
2022/03/16 01:21:32;;;;;;;26.17;14.00;;;;;;;2.07;95.75;102364.22;5069519;28;20060;-73
2022/03/16 01:23:58;;;;;;;33.90;21.58;;;;;;;2.05;96.36;102363.50;5069806;28;20119;-73
2022/03/16 01:26:24;;;;;;;30.48;15.45;;;;;;;2.13;97.61;102354.13;5067072;28;20151;-73
2022/03/16 01:28:49;;;;;;;26.27;15.85;;;;;;;2.21;98.23;102358.88;5068429;28;20032;-73
2022/03/16 01:31:15;;;;;;;29.48;16.60;;;;;;;2.17;97.81;102353.00;5068544;28;20048;-73
2022/03/16 01:33:40;;;;;;;26.00;14.27;;;;;;;2.18;98.21;102354.66;5069705;28;20039;-73
2022/03/16 01:36:06;;;;;;;28.65;16.40;;;;;;;2.19;98.62;102352.88;5069674;28;20107;-73
2022/03/16 01:38:31;;;;;;;29.83;16.92;;;;;;;2.29;99.71;102345.19;5069754;28;20024;-73
2022/03/16 01:40:57;;;;;;;30.85;14.35;;;;;;;2.36;100.00;102343.81;5069595;28;20036;-73
2022/03/16 01:43:22;;;;;;;29.30;17.42;;;;;;;2.34;99.64;102337.81;5069640;28;20032;-73
2022/03/16 01:45:51;;;;;;;27.73;16.40;;;;;;;2.39;99.77;102338.34;5069540;28;20047;-73
2022/03/16 01:48:17;;;;;;;28.73;17.52;;;;;;;2.51;100.00;102337.47;5069650;28;20043;-73
2022/03/16 01:50:43;;;;;;;39.35;23.02;;;;;;;2.55;100.00;102331.06;5069345;28;20025;-73
2022/03/16 01:53:10;;;;;;;33.50;20.17;;;;;;;2.63;100.00;102339.25;5068021;28;20121;-73
2022/03/16 01:55:37;;;;;;;37.65;21.98;;;;;;;2.68;100.00;102332.84;5069407;28;20032;-73
2022/03/16 01:58:02;;;;;;;36.10;21.42;;;;;;;2.69;100.00;102330.06;5069253;28;20039;-73
2022/03/16 02:00:28;;;;;;;38.10;20.88;;;;;;;2.78;100.00;102324.16;5069471;28;20123;-73
2022/03/16 02:02:53;;;;;;;40.85;23.95;;;;;;;2.85;100.00;102314.00;5068987;28;20032;-73
2022/03/16 02:05:18;;;;;;;35.70;20.52;;;;;;;2.90;100.00;102305.78;5068458;28;20028;-73
2022/03/16 02:07:45;;;;;;;35.75;21.23;;;;;;;2.96;100.00;102316.75;5069280;28;20024;-73
2022/03/16 02:10:11;;;;;;;37.42;21.92;;;;;;;3.00;100.00;102315.56;5069306;28;20029;-73
2022/03/16 02:13:02;;;;;;;32.72;22.25;;;;;;;3.01;100.00;102314.63;5069481;28;20484;-73
2022/03/16 02:15:28;;;;;;;41.67;24.80;;;;;;;3.03;100.00;102301.31;5067539;28;20111;-73
2022/03/16 02:17:55;;;;;;;35.75;21.42;;;;;;;3.03;100.00;102298.66;5068731;28;20189;-73
2022/03/16 02:20:25;;;;;;;33.00;20.58;;;;;;;3.05;100.00;102308.16;5068025;28;20388;-73
2022/03/16 02:23:17;;;;;;;38.33;22.08;;;;;;;3.06;100.00;102298.44;5072633;28;20115;-73
2022/03/16 02:25:52;;;;;;;33.40;20.38;;;;;;;3.08;100.00;102302.66;5066241;28;20087;-73
2022/03/16 02:28:19;;;;;;;36.40;24.00;;;;;;;3.10;100.00;102304.34;5069204;28;20028;-73
2022/03/16 02:30:45;;;;;;;30.73;18.88;;;;;;;3.02;100.00;102297.84;5069852;28;20058;-73
2022/03/16 02:33:11;;;;;;;38.05;22.42;;;;;;;3.01;100.00;102296.16;5073138;28;20476;-73
2022/03/16 02:35:36;;;;;;;34.10;20.30;;;;;;;3.01;100.00;102296.16;5073045;28;20035;-73
2022/03/16 02:38:03;;;;;;;38.53;20.48;;;;;;;2.97;100.00;102286.78;5073093;28;20032;-73
2022/03/16 02:40:29;;;;;;;37.30;23.80;;;;;;;2.98;100.00;102291.09;5072944;28;20074;-73
2022/03/16 02:42:54;;;;;;;37.72;20.88;;;;;;;2.99;100.00;102290.16;5071469;28;20052;-73
2022/03/16 02:45:19;;;;;;;33.33;19.98;;;;;;;3.00;100.00;102293.63;5072555;28;20032;-73
2022/03/16 02:47:45;;;;;;;34.42;23.13;;;;;;;2.98;100.00;102293.72;5072715;28;20031;-73
2022/03/16 02:50:16;;;;;;;32.20;20.83;;;;;;;2.98;100.00;102295.53;5072438;28;20060;-73
2022/03/16 02:52:43;;;;;;;31.85;19.25;;;;;;;2.95;100.00;102299.22;5072406;28;20057;-73
2022/03/16 02:55:09;;;;;;;30.75;17.83;;;;;;;2.92;100.00;102288.91;5072453;28;20067;-73
2022/03/16 02:57:34;;;;;;;32.53;20.33;;;;;;;2.90;100.00;102293.44;5072457;28;20032;-73
2022/03/16 03:00:00;;;;;;;40.63;23.60;;;;;;;2.84;100.00;102289.47;5071369;28;20086;-73
2022/03/16 03:02:25;;;;;;;32.42;18.75;;;;;;;2.85;100.00;102296.41;5072536;28;20153;-73
2022/03/16 03:04:51;;;;;;;30.33;19.42;;;;;;;2.81;100.00;102300.22;5072405;28;20476;-73
2022/03/16 03:07:16;;;;;;;29.90;17.40;;;;;;;2.81;100.00;102291.50;5072464;28;20029;-73
2022/03/16 03:09:42;;;;;;;28.80;17.65;;;;;;;2.77;100.00;102282.94;5071796;28;20609;-73
2022/03/16 03:12:08;;;;;;;31.20;19.38;;;;;;;2.78;100.00;102281.19;5070969;28;20036;-73
2022/03/16 03:14:33;;;;;;;35.53;20.08;;;;;;;2.82;100.00;102294.00;5071730;28;20368;-73
2022/03/16 03:17:00;;;;;;;42.13;28.10;;;;;;;2.82;100.00;102293.16;5071012;28;20031;-73
2022/03/16 03:19:25;;;;;;;32.50;20.50;;;;;;;2.81;100.00;102286.22;5072227;28;20086;-73
2022/03/16 03:21:51;;;;;;;30.60;19.63;;;;;;;2.76;100.00;102278.63;5071953;28;20521;-73
2022/03/16 03:24:16;;;;;;;31.38;20.00;;;;;;;2.74;100.00;102272.63;5072045;28;20033;-73
2022/03/16 03:26:42;;;;;;;34.60;19.83;;;;;;;2.76;100.00;102281.28;5070521;28;20044;-73
2022/03/16 03:29:08;;;;;;;32.95;19.63;;;;;;;2.76;100.00;102286.53;5072095;28;20039;-73
2022/03/16 03:31:34;;;;;;;29.55;18.63;;;;;;;2.73;100.00;102284.13;5071785;28;20032;-73
2022/03/16 03:34:00;;;;;;;35.17;22.42;;;;;;;2.74;100.00;102284.97;5070705;28;20025;-73
2022/03/16 03:36:25;;;;;;;36.25;22.35;;;;;;;2.71;100.00;102288.66;5071955;28;20036;-73
2022/03/16 03:38:50;;;;;;;37.72;23.25;;;;;;;2.70;100.00;102288.75;5071865;28;20032;-73
2022/03/16 03:41:16;;;;;;;33.53;21.65;;;;;;;2.67;100.00;102299.53;5070434;28;20119;-73
2022/03/16 03:43:41;;;;;;;35.55;23.10;;;;;;;2.62;100.00;102294.59;5071063;28;20514;-72
2022/03/16 03:46:06;;;;;;;39.75;25.65;;;;;;;2.58;100.00;102298.38;5070183;28;20391;-73
2022/03/16 03:48:32;;;;;;;35.63;21.45;;;;;;;2.55;100.00;102296.81;5071505;28;20104;-73
2022/03/16 03:50:58;;;;;;;33.30;21.10;;;;;;;2.54;100.00;102299.53;5070085;28;20434;-73
2022/03/16 03:53:23;;;;;;;35.75;23.33;;;;;;;2.52;100.00;102290.94;5070185;28;20059;-73
2022/03/16 03:55:48;;;;;;;37.50;23.52;;;;;;;2.51;100.00;102294.50;5070001;28;20104;-73
2022/03/16 03:58:14;;;;;;;32.72;21.27;;;;;;;2.49;100.00;102286.72;5071380;28;20030;-73
2022/03/16 04:00:39;;;;;;;37.80;24.17;;;;;;;2.51;100.00;102289.22;5070214;28;20040;-73
2022/03/16 04:03:05;;;;;;;34.97;24.83;;;;;;;2.51;100.00;102297.13;5071382;28;20502;-73
2022/03/16 04:05:30;;;;;;;37.25;24.25;;;;;;;2.49;100.00;102299.03;5071270;28;20106;-73
2022/03/16 04:07:55;;;;;;;42.30;26.23;;;;;;;2.45;100.00;102297.56;5071264;28;20147;-73
2022/03/16 04:10:21;;;;;;;35.67;23.98;;;;;;;2.40;100.00;102292.63;5069622;28;20029;-73
2022/03/16 04:12:46;;;;;;;34.22;19.63;;;;;;;2.41;100.00;102299.56;5073898;28;20029;-73
2022/03/16 04:15:12;;;;;;;38.63;23.90;;;;;;;2.41;100.00;102297.78;5073204;28;20024;-73
2022/03/16 04:17:37;;;;;;;35.30;23.08;;;;;;;2.40;100.00;102293.47;5071533;28;20052;-73
2022/03/16 04:20:05;;;;;;;35.20;23.48;;;;;;;2.40;100.00;102295.25;5070854;28;20059;-73
2022/03/16 04:22:30;;;;;;;34.33;23.63;;;;;;;2.42;100.00;102302.09;5070777;28;20575;-73
2022/03/16 04:24:56;;;;;;;34.72;21.20;;;;;;;2.38;100.00;102292.75;5070732;28;20120;-73
2022/03/16 04:27:22;;;;;;;33.53;20.35;;;;;;;2.39;100.00;102299.69;5070738;28;20484;-73
2022/03/16 04:29:47;;;;;;;38.88;23.67;;;;;;;2.37;100.00;102292.84;5070822;28;20380;-73
2022/03/16 04:32:13;;;;;;;34.20;22.67;;;;;;;2.44;100.00;102303.78;5070789;28;20039;-73
2022/03/16 04:34:38;;;;;;;33.30;21.23;;;;;;;2.37;100.00;102291.06;5070776;28;20083;-73
2022/03/16 04:37:04;;;;;;;37.30;24.15;;;;;;;2.46;100.00;102294.81;5069655;28;20034;-73
2022/03/16 04:39:30;;;;;;;37.20;24.95;;;;;;;2.48;100.00;102289.47;5070462;28;20400;-73
2022/03/16 04:41:56;;;;;;;35.45;20.77;;;;;;;2.50;100.00;102290.19;5052807;28;20113;-73
2022/03/16 04:44:21;;;;;;;37.88;24.35;;;;;;;2.55;100.00;102291.56;5070308;28;20037;-73
2022/03/16 04:46:47;;;;;;;34.50;22.00;;;;;;;2.54;100.00;102291.66;5070122;28;20029;-73
2022/03/16 04:49:12;;;;;;;35.60;23.40;;;;;;;2.48;100.00;102285.03;5069128;28;20028;-73
2022/03/16 04:51:37;;;;;;;39.65;22.60;;;;;;;2.44;100.00;102269.53;5069980;28;20060;-73
2022/03/16 04:54:03;;;;;;;40.60;22.85;;;;;;;2.53;100.00;102284.72;5070283;28;20514;-73
2022/03/16 04:56:29;;;;;;;40.30;22.40;;;;;;;2.47;100.00;102285.97;5070265;28;20040;-73
2022/03/16 04:58:54;;;;;;;39.10;22.67;;;;;;;2.51;100.00;102287.44;5070244;28;20444;-73
2022/03/16 05:01:20;;;;;;;48.72;23.00;;;;;;;2.48;100.00;102276.28;5068969;28;20510;-73
2022/03/16 05:03:46;;;;;;;39.35;23.30;;;;;;;2.54;100.00;102286.38;5070498;28;20032;-73
2022/03/16 05:06:11;;;;;;;40.00;24.17;;;;;;;2.54;100.00;102276.72;5070350;28;20077;-73
2022/03/16 05:08:37;;;;;;;38.75;22.35;;;;;;;2.54;100.00;102276.72;5068484;28;20109;-73
2022/03/16 05:11:04;;;;;;;37.97;24.77;;;;;;;2.54;100.00;102273.22;5068804;28;20064;-73
2022/03/16 05:13:30;;;;;;;38.20;20.08;;;;;;;2.54;100.00;102276.72;5070095;28;20024;-73
2022/03/16 05:15:55;;;;;;;36.55;21.45;;;;;;;2.51;100.00;102276.91;5069984;28;20034;-73
2022/03/16 05:18:23;;;;;;;40.90;22.65;;;;;;;2.51;100.00;102282.16;5069529;28;20054;-73
2022/03/16 05:20:48;;;;;;;36.70;24.23;;;;;;;2.50;100.00;102285.75;5069889;28;20028;-73
2022/03/16 05:23:14;;;;;;;34.40;22.65;;;;;;;2.45;100.00;102285.25;5069835;28;20069;-73
2022/03/16 05:25:39;;;;;;;36.70;20.98;;;;;;;2.43;100.00;102284.50;5068299;28;20744;-73
2022/03/16 05:28:05;;;;;;;38.17;24.55;;;;;;;2.48;100.00;102286.81;5051750;28;20033;-73
2022/03/16 05:30:30;;;;;;;38.85;22.00;;;;;;;2.46;100.00;102284.28;5069863;28;20043;-73
2022/03/16 05:33:00;;;;;;;37.72;21.80;;;;;;;2.47;100.00;102291.25;5069710;28;20040;-73
2022/03/16 05:35:26;;;;;;;40.85;22.63;;;;;;;2.50;100.00;102279.66;5068127;28;20451;-73
2022/03/16 05:37:52;;;;;;;34.78;19.73;;;;;;;2.53;100.00;102280.28;5069476;28;20036;-73
2022/03/16 05:40:17;;;;;;;31.55;19.08;;;;;;;2.50;100.00;102269.97;5069596;28;20025;-73
2022/03/16 05:42:43;;;;;;;31.88;18.08;;;;;;;2.52;100.00;102265.44;5069064;28;20031;-73
2022/03/16 05:45:09;;;;;;;34.40;19.88;;;;;;;2.60;100.00;102284.16;5068017;28;20043;-73
2022/03/16 05:47:35;;;;;;;33.10;18.73;;;;;;;2.66;100.00;102280.25;5069247;28;20047;-73
2022/03/16 05:50:00;;;;;;;34.67;19.73;;;;;;;2.71;100.00;102282.56;5069594;28;20033;-73
2022/03/16 05:52:26;;;;;;;32.67;17.05;;;;;;;2.70;100.00;102272.97;5067879;28;20048;-72
2022/03/16 05:54:54;;;;;;;32.53;19.73;;;;;;;2.74;100.00;102279.69;5069177;28;20032;-73
2022/03/16 05:57:20;;;;;;;34.50;19.92;;;;;;;2.80;100.00;102274.84;5069200;28;20032;-73
2022/03/16 05:59:45;;;;;;;30.05;17.67;;;;;;;2.81;100.00;102273.03;5069292;28;20029;-73
2022/03/16 06:02:12;;;;;;;27.27;15.68;;;;;;;2.88;100.00;102279.53;5070884;28;20105;-73
2022/03/16 06:04:38;;;;;;;31.38;17.20;;;;;;;2.92;100.00;102283.66;5071229;28;20119;-73
2022/03/16 06:07:05;;;;;;;26.90;15.30;;;;;;;2.97;100.00;102283.31;5073475;28;20959;-73
2022/03/16 06:09:30;;;;;;;29.70;14.05;;;;;;;3.01;100.00;102282.13;5073504;28;20066;-73
2022/03/16 06:11:56;;;;;;;27.50;15.30;;;;;;;3.11;100.00;102292.84;5073392;28;20024;-73
2022/03/16 06:14:21;;;;;;;26.05;14.73;;;;;;;3.14;100.00;102280.28;5071905;28;20020;-72
2022/03/16 06:16:47;;;;;;;25.10;13.98;;;;;;;3.24;100.00;102283.91;5073244;28;20035;-73
2022/03/16 06:19:13;;;;;;;25.65;13.38;;;;;;;3.26;100.00;102279.38;5073101;28;20082;-73
2022/03/16 06:21:38;;;;;;;24.40;13.02;;;;;;;3.37;100.00;102291.75;5073037;28;20047;-73
2022/03/16 06:24:04;;;;;;;24.75;13.40;;;;;;;3.43;100.00;102286.06;5072763;28;20048;-73
2022/03/16 06:26:30;;;;;;;24.20;12.88;;;;;;;3.40;100.00;102278.34;5073113;28;20055;-72
2022/03/16 06:28:55;;;;;;;25.58;13.60;;;;;;;3.56;100.00;102296.50;5073039;28;20476;-73
2022/03/16 06:31:20;;;;;;;23.40;11.68;;;;;;;3.65;100.00;102300.25;5071666;28;20115;-73
2022/03/16 06:33:46;;;;;;;24.63;12.05;;;;;;;3.71;100.00;102297.16;5072146;28;20075;-73
2022/03/16 06:36:11;;;;;;;23.25;11.40;;;;;;;3.86;100.00;102301.25;5071899;28;20036;-73
2022/03/16 06:38:36;;;;;;;24.35;12.38;;;;;;;4.04;100.00;102299.03;5072847;28;20029;-73
2022/03/16 06:41:02;;;;;;;22.13;13.35;;;;;;;4.16;100.00;102286.66;5072634;28;20033;-73
2022/03/16 06:43:27;;;;;;;22.73;11.18;;;;;;;4.27;100.00;102285.81;5071264;28;20093;-73
2022/03/16 06:45:52;;;;;;;21.80;11.52;;;;;;;4.36;99.68;102303.59;5072053;28;20032;-73
2022/03/16 06:48:22;;;;;;;21.27;11.30;;;;;;;4.36;99.27;102280.66;5071416;28;20550;-73
2022/03/16 06:50:48;;;;;;;23.10;10.82;;;;;;;4.48;99.16;102289.44;5072466;28;20035;-73
2022/03/16 06:53:13;;;;;;;22.75;12.15;;;;;;;4.54;98.14;102298.69;5072318;28;20057;-73
2022/03/16 06:55:39;;;;;;;23.30;10.07;;;;;;;4.53;97.88;102287.28;5072197;28;20029;-73
2022/03/16 06:58:04;;;;;;;21.60;10.13;;;;;;;4.68;97.61;102292.28;5072479;28;20024;-73
2022/03/16 07:00:29;;;;;;;24.40;11.05;;;;;;;4.78;97.30;102288.78;5072338;28;20032;-73
2022/03/16 07:02:57;;;;;;;22.77;13.68;;;;;;;4.92;96.18;102281.53;5072342;28;20035;-73
2022/03/16 07:05:37;;;;;;;18.83;9.82;;;;;;;5.05;96.28;102276.94;5072213;28;20051;-73
2022/03/16 07:08:04;;;;;;;19.88;8.60;;;;;;;5.21;95.56;102282.66;5072300;28;20103;-73
2022/03/16 07:10:30;;;;;;;17.70;9.77;;;;;;;5.43;95.06;102273.78;5072068;28;20083;-73
2022/03/16 07:12:56;;;;;;;17.13;8.68;;;;;;;5.74;93.59;102278.28;5072195;28;20883;-73
2022/03/16 07:15:22;;;;;;;16.85;7.80;;;;;;;5.78;91.64;102274.44;5072058;28;20027;-73
2022/03/16 07:17:48;;;;;;;17.88;8.40;;;;;;;5.77;91.31;102268.31;5070808;28;20040;-73
2022/03/16 07:20:13;;;;;;;19.75;9.40;;;;;;;5.89;90.78;102258.47;5070946;28;20032;-73
2022/03/16 07:22:39;;;;;;;17.08;7.82;;;;;;;6.06;90.00;102257.06;5072097;28;20373;-73
2022/03/16 07:25:09;;;;;;;18.52;7.90;;;;;;;6.39;87.23;102268.34;5070607;28;20049;-73
2022/03/16 07:27:39;;;;;;;15.50;7.57;;;;;;;6.40;87.93;102248.84;5071677;28;20033;-73
2022/03/16 07:30:09;;;;;;;20.80;9.52;;;;;;;6.42;87.70;102245.09;5071881;28;20111;-74
2022/03/16 07:32:39;;;;;;;21.38;9.55;;;;;;;6.45;87.77;102238.66;5071301;28;20882;-73
2022/03/16 07:35:06;;;;;;;18.75;8.45;;;;;;;6.57;87.39;102245.53;5071561;28;20021;-73
2022/03/16 07:37:31;;;;;;;19.83;9.48;;;;;;;6.61;86.50;102240.81;5071691;28;20947;-73
2022/03/16 07:39:56;;;;;;;16.98;7.45;;;;;;;6.65;87.00;102240.38;5071139;28;20047;-73
2022/03/16 07:42:22;;;;;;;17.50;8.20;;;;;;;6.67;86.05;102237.59;5070235;28;20036;-73
2022/03/16 07:44:49;;;;;;;18.27;9.43;;;;;;;6.74;86.32;102236.91;5070392;28;20043;-74
2022/03/16 07:47:14;;;;;;;19.10;8.07;;;;;;;6.79;85.12;102228.56;5065450;28;20028;-72
2022/03/16 07:49:39;;;;;;;17.65;8.57;;;;;;;6.97;84.89;102228.72;5065530;28;20033;-73
2022/03/16 07:52:05;;;;;;;18.73;8.90;;;;;;;7.30;83.80;102238.03;5067034;28;20140;-72
2022/03/16 07:54:30;;;;;;;17.02;7.90;;;;;;;7.39;82.92;102218.63;5067583;28;20020;-72
2022/03/16 07:56:56;;;;;;;17.80;8.18;;;;;;;7.38;81.94;102216.09;5071733;28;20029;-72
2022/03/16 07:59:21;;;;;;;15.60;8.27;;;;;;;7.52;80.67;102226.31;5071384;28;20052;-73
2022/03/16 08:01:47;;;;;;;18.60;7.78;;;;;;;7.69;81.17;102222.06;5053530;28;20031;-73
2022/03/16 08:04:15;;;;;;;17.38;8.65;;;;;;;7.93;80.22;102231.34;5071126;28;20062;-73
2022/03/16 08:06:41;;;;;;;17.42;9.30;;;;;;;8.08;81.13;102236.03;5071154;28;20024;-73
2022/03/16 08:09:06;;;;;;;17.98;8.43;;;;;;;8.25;78.68;102230.94;5071171;28;20033;-77
2022/03/16 08:11:31;;;;;;;16.58;9.18;;;;;;;8.52;79.89;102223.00;5071199;28;20025;-73
2022/03/16 08:13:57;;;;;;;16.48;8.50;;;;;;;8.69;78.06;102226.66;5070872;28;20051;-73
2022/03/16 08:16:23;;;;;;;18.85;8.18;;;;;;;8.65;77.95;102213.84;5071057;28;20032;-73
2022/03/16 08:18:48;;;;;;;16.55;7.63;;;;;;;8.70;75.88;102228.34;5070842;28;20029;-73
2022/03/16 08:21:14;;;;;;;19.42;8.90;;;;;;;8.68;76.77;102232.97;5070285;28;20037;-73
2022/03/16 08:23:39;;;;;;;17.90;7.43;;;;;;;8.67;78.29;102238.44;5070711;28;20037;-73
2022/03/16 08:26:04;;;;;;;17.75;8.20;;;;;;;8.74;77.13;102243.00;5068713;28;20040;-73
2022/03/16 08:28:30;;;;;;;19.63;9.30;;;;;;;8.78;76.96;102243.56;5070180;28;20028;-76
2022/03/16 08:30:55;;;;;;;18.95;7.82;;;;;;;8.84;76.71;102234.97;5070525;28;20058;-73
2022/03/16 08:33:23;;;;;;;18.85;9.23;;;;;;;8.80;76.84;102244.22;5070893;28;20387;-73
2022/03/16 08:35:49;;;;;;;17.92;8.70;;;;;;;8.76;78.44;102248.19;5070294;28;20029;-73
2022/03/16 08:38:15;;;;;;;16.98;8.25;;;;;;;8.75;77.83;102238.50;5070410;28;20051;-73
2022/03/16 08:40:41;;;;;;;17.55;8.70;;;;;;;8.76;78.73;102234.88;5070692;28;20028;-73
2022/03/16 08:43:07;;;;;;;17.77;8.85;;;;;;;8.86;77.51;102234.81;5070176;28;20044;-71
2022/03/16 08:45:33;;;;;;;18.13;9.25;;;;;;;8.84;76.15;102223.50;5068942;28;20036;-71
2022/03/16 08:47:58;;;;;;;16.00;8.10;;;;;;;8.82;76.05;102222.81;5069223;28;20086;-73
2022/03/16 08:50:24;;;;;;;19.60;9.32;;;;;;;8.93;76.06;102225.22;5070334;28;20103;-79
2022/03/16 08:52:50;;;;;;;21.83;10.13;;;;;;;9.02;75.69;102221.66;5069932;28;20123;-73
2022/03/16 08:55:16;;;;;;;19.75;8.88;;;;;;;9.07;75.40;102231.88;5070293;28;20032;-72
2022/03/16 08:57:44;;;;;;;16.92;7.65;;;;;;;9.12;76.38;102237.56;5070183;28;20032;-72
2022/03/16 09:00:14;;;;;;;19.33;9.10;;;;;;;9.17;75.06;102232.63;5070259;28;20044;-72
2022/03/16 09:02:40;;;;;;;18.70;10.05;;;;;;;9.27;74.99;102232.50;5070030;28;20032;-72
2022/03/16 09:05:06;;;;;;;18.98;8.32;;;;;;;9.28;74.40;102224.38;5070022;28;20044;-72
2022/03/16 09:07:31;;;;;;;18.02;8.70;;;;;;;9.29;73.68;102226.03;5069885;28;20365;-73
2022/03/16 09:09:57;;;;;;;17.33;7.72;;;;;;;9.29;73.59;102222.56;5068384;28;20036;-72
2022/03/16 09:12:24;;;;;;;19.27;10.73;;;;;;;9.33;72.70;102227.44;5069893;28;20042;-72
2022/03/16 09:14:49;;;;;;;19.27;10.10;;;;;;;9.38;72.74;102235.78;5069630;28;20034;-73
2022/03/16 09:17:17;;;;;;;18.70;9.07;;;;;;;9.42;72.15;102234.47;5069740;28;20032;-73
2022/03/16 09:19:43;;;;;;;18.20;9.55;;;;;;;9.45;71.87;102233.31;5069791;28;20502;-73
2022/03/16 09:22:08;;;;;;;17.17;8.52;;;;;;;9.56;73.01;102225.09;5069981;28;20036;-73
2022/03/16 09:24:34;;;;;;;17.38;8.48;;;;;;;9.62;72.19;102223.63;5068263;28;20383;-73
2022/03/16 09:26:59;;;;;;;17.75;8.27;;;;;;;9.69;71.23;102223.81;5069597;28;20032;-73
2022/03/16 09:29:28;;;;;;;20.77;10.18;;;;;;;9.76;71.64;102220.38;5069793;28;20035;-73
2022/03/16 09:31:53;;;;;;;18.50;10.05;;;;;;;9.89;71.29;102219.97;5069630;28;20032;-73
2022/03/16 09:34:19;;;;;;;16.77;8.90;;;;;;;9.88;70.99;102208.47;5069546;28;20029;-75
2022/03/16 09:36:45;;;;;;;21.45;8.23;;;;;;;9.98;71.00;102204.84;5069602;28;20036;-73
2022/03/16 09:39:11;;;;;;;19.95;8.73;;;;;;;10.12;71.13;102216.75;5069620;28;20028;-73
2022/03/16 09:41:37;;;;;;;18.65;9.55;;;;;;;10.19;71.17;102207.97;5069897;28;20375;-72
2022/03/16 09:44:04;;;;;;;19.77;10.13;;;;;;;10.25;70.11;102209.97;5069933;28;20028;-73
2022/03/16 09:46:31;;;;;;;20.27;9.88;;;;;;;10.26;69.17;102200.97;5069260;28;20348;-73
2022/03/16 09:48:57;;;;;;;19.85;9.52;;;;;;;10.35;69.88;102217.88;5069616;28;20518;-73
2022/03/16 09:51:23;;;;;;;18.13;9.98;;;;;;;10.42;69.12;102213.53;5068037;28;20028;-73
2022/03/16 09:53:48;;;;;;;19.75;10.15;;;;;;;10.52;69.14;102221.41;5069385;28;20499;-73
2022/03/16 09:56:14;;;;;;;19.88;8.50;;;;;;;10.55;69.05;102220.25;5069376;28;20039;-73
2022/03/16 09:58:43;;;;;;;21.15;9.57;;;;;;;10.58;68.96;102225.25;5069540;28;20561;-73
2022/03/16 10:01:08;;;;;;;21.73;10.57;;;;;;;10.64;68.47;102220.13;5069559;28;20468;-73
2022/03/16 10:03:35;;;;;;;18.45;8.75;;;;;;;10.65;67.56;102220.94;5069212;28;20039;-71
2022/03/16 10:06:01;;;;;;;17.70;8.27;;;;;;;10.65;67.88;102218.28;5069303;28;20039;-73
2022/03/16 10:08:31;;;;;;;19.80;8.85;;;;;;;10.65;67.63;102205.78;5068955;28;20028;-73
2022/03/16 10:13:59;;;;;;;17.48;8.75;;;;;;;10.70;68.22;102211.47;5069164;28;20179;-73
2022/03/16 10:16:25;;;;;;;19.63;10.50;;;;;;;10.73;67.80;102208.44;5069278;28;20082;-73
2022/03/16 10:18:55;;;;;;;19.98;9.10;;;;;;;10.75;68.44;102217.13;5069185;28;20541;-73
2022/03/16 10:21:22;;;;;;;20.95;10.82;;;;;;;10.86;68.66;102207.16;5069116;28;20036;-73
2022/03/16 10:23:47;;;;;;;20.45;10.82;;;;;;;10.96;66.40;102205.97;5068799;28;20035;-73
2022/03/16 10:26:17;;;;;;;23.48;11.95;;;;;;;11.03;67.22;102198.16;5069156;28;20037;-73
2022/03/16 10:28:46;;;;;;;20.88;9.70;;;;;;;11.19;67.98;102210.69;5067531;28;20028;-73
2022/03/16 10:31:14;;;;;;;20.13;11.80;;;;;;;11.28;67.18;102204.31;5069061;28;20032;-73
2022/03/16 10:33:48;;;;;;;20.15;9.93;;;;;;;11.28;66.73;102209.66;5069062;28;20468;-73
2022/03/16 10:36:16;;;;;;;19.85;10.32;;;;;;;11.37;67.54;102211.34;5068970;28;20036;-73
2022/03/16 10:38:52;;;;;;;19.95;9.98;;;;;;;11.52;66.66;102203.44;5069060;28;20036;-73
2022/03/16 10:47:11;;;;;;;21.35;10.02;;;;;;;11.85;64.77;102206.06;5069359;28;20043;-73
2022/03/16 10:49:38;;;;;;;21.25;10.02;;;;;;;11.76;64.86;102194.56;5068982;28;20361;-73
2022/03/16 10:52:10;;;;;;;18.08;10.75;;;;;;;11.80;65.82;102195.88;5070023;28;20092;-73
2022/03/16 10:54:37;;;;;;;22.67;10.45;;;;;;;11.78;65.80;102195.22;5072168;28;20028;-73
2022/03/16 10:57:10;;;;;;;18.77;9.57;;;;;;;11.85;65.72;102193.53;5071272;28;20108;-73
2022/03/16 10:59:37;;;;;;;20.58;10.68;;;;;;;11.94;65.81;102183.66;5072524;28;20104;-73
2022/03/16 11:02:12;;;;;;;20.65;9.90;;;;;;;12.03;66.41;102179.97;5070854;28;20082;-73
2022/03/16 11:04:39;;;;;;;22.55;11.93;;;;;;;12.03;65.38;102176.47;5070309;28;20021;-71
2022/03/16 11:07:05;;;;;;;20.25;9.57;;;;;;;12.13;66.17;102174.41;5072234;28;20024;-71
2022/03/16 11:09:32;;;;;;;17.48;8.82;;;;;;;12.24;64.32;102171.34;5072331;28;20037;-73
2022/03/16 11:14:43;;;;;;;19.27;9.18;;;;;;;12.28;63.45;102172.63;5071206;28;20047;-73
2022/03/16 11:17:10;;;;;;;18.38;10.00;;;;;;;12.27;64.65;102176.34;5071770;28;20492;-73
2022/03/16 11:19:36;;;;;;;21.65;9.95;;;;;;;12.30;63.89;102155.59;5072053;28;20028;-73
2022/03/16 11:22:17;;;;;;;20.23;8.95;;;;;;;12.46;64.93;102166.19;5070853;28;20051;-73